sensor_id;sensor_type;location;lat;lon;timestamp;pressure;altitude;pressure_sealevel;temperature;humidity
74834;BME280;63361;52.384;20.930;2023-04-21T00:01:06;101088.50;;;8.26;73.97
74834;BME280;63361;52.384;20.930;2023-04-21T00:03:33;101088.00;;;8.07;75.37
74834;BME280;63361;52.384;20.930;2023-04-21T00:06:02;101081.72;;;7.85;76.61
74834;BME280;63361;52.384;20.930;2023-04-21T00:08:27;101086.94;;;7.91;76.53
74834;BME280;63361;52.384;20.930;2023-04-21T00:10:52;101084.06;;;7.81;76.83
74834;BME280;63361;52.384;20.930;2023-04-21T00:13:18;101084.50;;;7.73;77.54
74834;BME280;63361;52.384;20.930;2023-04-21T00:15:43;101089.97;;;7.61;78.25
74834;BME280;63361;52.384;20.930;2023-04-21T00:18:08;101090.22;;;7.93;76.56
74834;BME280;63361;52.384;20.930;2023-04-21T00:20:34;101077.72;;;7.54;78.59
74834;BME280;63361;52.384;20.930;2023-04-21T00:23:00;101076.28;;;7.46;78.77
74834;BME280;63361;52.384;20.930;2023-04-21T00:25:25;101076.75;;;7.60;78.06
74834;BME280;63361;52.384;20.930;2023-04-21T00:27:51;101083.78;;;7.61;78.62
74834;BME280;63361;52.384;20.930;2023-04-21T00:30:16;101088.25;;;7.72;76.82
74834;BME280;63361;52.384;20.930;2023-04-21T00:32:42;101074.16;;;7.48;78.27
74834;BME280;63361;52.384;20.930;2023-04-21T00:35:08;101080.50;;;7.42;78.52
74834;BME280;63361;52.384;20.930;2023-04-21T00:37:33;101068.59;;;7.38;79.07
74834;BME280;63361;52.384;20.930;2023-04-21T00:39:58;101070.19;;;7.22;79.90
74834;BME280;63361;52.384;20.930;2023-04-21T00:42:24;101073.03;;;7.16;80.43
74834;BME280;63361;52.384;20.930;2023-04-21T00:44:50;101083.53;;;7.17;80.63
74834;BME280;63361;52.384;20.930;2023-04-21T00:47:16;101062.44;;;7.09;80.18
74834;BME280;63361;52.384;20.930;2023-04-21T00:49:42;101079.06;;;7.23;80.43
74834;BME280;63361;52.384;20.930;2023-04-21T00:52:08;101076.84;;;7.20;80.09
74834;BME280;63361;52.384;20.930;2023-04-21T00:54:36;101081.16;;;7.21;79.92
74834;BME280;63361;52.384;20.930;2023-04-21T00:57:02;101066.66;;;7.05;79.85
74834;BME280;63361;52.384;20.930;2023-04-21T00:59:28;101066.56;;;7.28;79.56
74834;BME280;63361;52.384;20.930;2023-04-21T01:01:54;101060.91;;;7.13;79.61
74834;BME280;63361;52.384;20.930;2023-04-21T01:04:19;101085.44;;;7.05;80.95
74834;BME280;63361;52.384;20.930;2023-04-21T01:06:44;101063.19;;;6.93;81.11
74834;BME280;63361;52.384;20.930;2023-04-21T01:09:10;101061.91;;;6.95;81.05
74834;BME280;63361;52.384;20.930;2023-04-21T01:11:39;101068.00;;;6.91;82.02
74834;BME280;63361;52.384;20.930;2023-04-21T01:14:04;101074.47;;;6.78;82.98
74834;BME280;63361;52.384;20.930;2023-04-21T01:16:30;101063.91;;;6.48;84.25
74834;BME280;63361;52.384;20.930;2023-04-21T01:18:58;101078.84;;;6.56;84.55
74834;BME280;63361;52.384;20.930;2023-04-21T01:21:24;101070.22;;;6.42;84.71
74834;BME280;63361;52.384;20.930;2023-04-21T01:23:51;101074.31;;;6.45;85.51
74834;BME280;63361;52.384;20.930;2023-04-21T01:26:18;101068.47;;;6.48;85.44
74834;BME280;63361;52.384;20.930;2023-04-21T01:28:43;101059.41;;;6.14;86.96
74834;BME280;63361;52.384;20.930;2023-04-21T01:31:08;101071.75;;;6.15;86.99
74834;BME280;63361;52.384;20.930;2023-04-21T01:33:34;101067.94;;;6.22;87.85
74834;BME280;63361;52.384;20.930;2023-04-21T01:35:59;101078.41;;;6.12;87.56
74834;BME280;63361;52.384;20.930;2023-04-21T01:38:26;101064.44;;;6.22;87.05
74834;BME280;63361;52.384;20.930;2023-04-21T01:40:52;101070.47;;;6.29;86.65
74834;BME280;63361;52.384;20.930;2023-04-21T01:43:21;101077.34;;;6.13;87.61
74834;BME280;63361;52.384;20.930;2023-04-21T01:45:47;101069.31;;;6.13;87.70
74834;BME280;63361;52.384;20.930;2023-04-21T01:48:12;101079.34;;;6.06;88.19
74834;BME280;63361;52.384;20.930;2023-04-21T01:50:38;101077.00;;;5.98;88.69
74834;BME280;63361;52.384;20.930;2023-04-21T01:53:03;101062.63;;;5.69;90.31
74834;BME280;63361;52.384;20.930;2023-04-21T01:55:28;101071.63;;;5.75;90.67
74834;BME280;63361;52.384;20.930;2023-04-21T01:57:54;101066.03;;;5.64;91.20
74834;BME280;63361;52.384;20.930;2023-04-21T02:00:22;101058.69;;;5.60;90.82
74834;BME280;63361;52.384;20.930;2023-04-21T02:02:47;101077.59;;;5.88;89.55
74834;BME280;63361;52.384;20.930;2023-04-21T02:05:12;101075.56;;;5.72;90.17
74834;BME280;63361;52.384;20.930;2023-04-21T02:07:38;101077.34;;;5.78;89.61
74834;BME280;63361;52.384;20.930;2023-04-21T02:10:03;101040.38;;;5.57;89.78
74834;BME280;63361;52.384;20.930;2023-04-21T02:12:29;101068.81;;;5.70;90.79
74834;BME280;63361;52.384;20.930;2023-04-21T02:14:54;101044.78;;;5.51;90.06
74834;BME280;63361;52.384;20.930;2023-04-21T02:17:19;101063.31;;;5.53;90.68
74834;BME280;63361;52.384;20.930;2023-04-21T02:19:44;101041.78;;;5.48;89.57
74834;BME280;63361;52.384;20.930;2023-04-21T02:22:11;101071.13;;;5.66;89.22
74834;BME280;63361;52.384;20.930;2023-04-21T02:24:37;101059.38;;;5.67;88.10
74834;BME280;63361;52.384;20.930;2023-04-21T02:27:03;101084.13;;;5.92;87.08
74834;BME280;63361;52.384;20.930;2023-04-21T02:29:28;101067.22;;;6.04;85.31
74834;BME280;63361;52.384;20.930;2023-04-21T02:31:53;101067.78;;;5.82;87.14
74834;BME280;63361;52.384;20.930;2023-04-21T02:34:19;101058.69;;;5.72;86.66
74834;BME280;63361;52.384;20.930;2023-04-21T02:36:45;101062.25;;;5.54;89.06
74834;BME280;63361;52.384;20.930;2023-04-21T02:39:10;101062.25;;;5.54;88.84
74834;BME280;63361;52.384;20.930;2023-04-21T02:41:36;101064.03;;;5.60;88.80
74834;BME280;63361;52.384;20.930;2023-04-21T02:44:01;101074.53;;;5.61;88.63
74834;BME280;63361;52.384;20.930;2023-04-21T02:46:26;101065.72;;;5.31;90.80
74834;BME280;63361;52.384;20.930;2023-04-21T02:48:52;101054.41;;;5.17;91.72
74834;BME280;63361;52.384;20.930;2023-04-21T02:51:17;101059.75;;;5.17;91.97
74834;BME280;63361;52.384;20.930;2023-04-21T02:53:42;101053.88;;;5.09;92.52
74834;BME280;63361;52.384;20.930;2023-04-21T02:56:08;101068.44;;;5.13;93.24
74834;BME280;63361;52.384;20.930;2023-04-21T02:58:34;101052.56;;;4.88;95.05
74834;BME280;63361;52.384;20.930;2023-04-21T03:01:01;101027.91;;;4.68;95.46
74834;BME280;63361;52.384;20.930;2023-04-21T03:03:27;101066.47;;;4.90;95.48
74834;BME280;63361;52.384;20.930;2023-04-21T03:05:57;101056.88;;;4.71;95.56
74834;BME280;63361;52.384;20.930;2023-04-21T03:08:22;101049.78;;;4.76;95.37
74834;BME280;63361;52.384;20.930;2023-04-21T03:10:48;101048.03;;;4.70;95.65
74834;BME280;63361;52.384;20.930;2023-04-21T03:13:13;101047.72;;;5.08;92.87
74834;BME280;63361;52.384;20.930;2023-04-21T03:15:38;101068.31;;;5.08;92.46
74834;BME280;63361;52.384;20.930;2023-04-21T03:18:04;101054.84;;;5.14;91.89
74834;BME280;63361;52.384;20.930;2023-04-21T03:20:29;101068.59;;;5.18;91.49
74834;BME280;63361;52.384;20.930;2023-04-21T03:22:54;101031.19;;;5.00;90.76
74834;BME280;63361;52.384;20.930;2023-04-21T03:25:20;101057.50;;;5.44;89.18
74834;BME280;63361;52.384;20.930;2023-04-21T03:27:45;101063.44;;;5.46;88.28
74834;BME280;63361;52.384;20.930;2023-04-21T03:30:11;101049.47;;;5.68;85.78
74834;BME280;63361;52.384;20.930;2023-04-21T03:32:36;101063.47;;;5.81;84.53
74834;BME280;63361;52.384;20.930;2023-04-21T03:35:02;101072.59;;;6.04;83.99
74834;BME280;63361;52.384;20.930;2023-04-21T03:37:27;101052.75;;;5.81;84.56
74834;BME280;63361;52.384;20.930;2023-04-21T03:39:52;101082.84;;;6.07;82.90
74834;BME280;63361;52.384;20.930;2023-04-21T03:42:18;101066.28;;;5.98;82.86
74834;BME280;63361;52.384;20.930;2023-04-21T03:44:43;101056.38;;;5.98;82.69
74834;BME280;63361;52.384;20.930;2023-04-21T03:47:08;101066.19;;;6.05;82.36
74834;BME280;63361;52.384;20.930;2023-04-21T03:49:34;101060.22;;;6.14;81.31
74834;BME280;63361;52.384;20.930;2023-04-21T03:51:59;101059.53;;;6.82;78.05
74834;BME280;63361;52.384;20.930;2023-04-21T03:54:24;101062.03;;;7.62;74.31
74834;BME280;63361;52.384;20.930;2023-04-21T03:56:50;101058.31;;;8.35;70.24
74834;BME280;63361;52.384;20.930;2023-04-21T03:59:15;101059.28;;;8.73;67.28
74834;BME280;63361;52.384;20.930;2023-04-21T04:01:40;101075.09;;;9.40;64.95
74834;BME280;63361;52.384;20.930;2023-04-21T04:04:06;101073.00;;;9.79;62.83
74834;BME280;63361;52.384;20.930;2023-04-21T04:06:32;101067.72;;;9.94;61.27
74834;BME280;63361;52.384;20.930;2023-04-21T04:08:57;101083.03;;;10.68;59.61
74834;BME280;63361;52.384;20.930;2023-04-21T04:11:22;101070.63;;;10.77;58.11
74834;BME280;63361;52.384;20.930;2023-04-21T04:13:48;101073.19;;;11.14;57.25
74834;BME280;63361;52.384;20.930;2023-04-21T04:16:13;101074.28;;;11.63;54.87
74834;BME280;63361;52.384;20.930;2023-04-21T04:18:38;101072.44;;;12.05;53.91
74834;BME280;63361;52.384;20.930;2023-04-21T04:21:05;101085.88;;;12.40;52.56
74834;BME280;63361;52.384;20.930;2023-04-21T04:23:31;101070.44;;;13.00;50.50
74834;BME280;63361;52.384;20.930;2023-04-21T04:25:57;101087.28;;;13.46;50.28
74834;BME280;63361;52.384;20.930;2023-04-21T04:28:22;101093.88;;;14.03;47.64
74834;BME280;63361;52.384;20.930;2023-04-21T04:30:48;101100.84;;;14.38;46.65
74834;BME280;63361;52.384;20.930;2023-04-21T04:33:13;101090.13;;;14.23;46.86
74834;BME280;63361;52.384;20.930;2023-04-21T04:35:38;101084.41;;;14.00;46.61
74834;BME280;63361;52.384;20.930;2023-04-21T04:38:04;101096.94;;;14.73;45.37
74834;BME280;63361;52.384;20.930;2023-04-21T04:40:29;101094.13;;;15.02;44.29
74834;BME280;63361;52.384;20.930;2023-04-21T04:42:56;101087.97;;;15.53;43.34
74834;BME280;63361;52.384;20.930;2023-04-21T04:45:22;101094.34;;;16.13;42.08
74834;BME280;63361;52.384;20.930;2023-04-21T04:47:48;101089.56;;;16.65;40.68
74834;BME280;63361;52.384;20.930;2023-04-21T04:50:13;101102.28;;;16.69;40.59
74834;BME280;63361;52.384;20.930;2023-04-21T04:52:39;101090.72;;;17.00;39.10
74834;BME280;63361;52.384;20.930;2023-04-21T04:55:05;101079.41;;;16.38;40.69
74834;BME280;63361;52.384;20.930;2023-04-21T04:57:31;101088.47;;;16.06;41.24
74834;BME280;63361;52.384;20.930;2023-04-21T04:59:56;101088.88;;;17.45;38.43
74834;BME280;63361;52.384;20.930;2023-04-21T05:02:21;101100.47;;;17.64;38.10
74834;BME280;63361;52.384;20.930;2023-04-21T05:04:49;101114.41;;;18.38;36.71
74834;BME280;63361;52.384;20.930;2023-04-21T05:07:14;101088.78;;;17.72;37.34
74834;BME280;63361;52.384;20.930;2023-04-21T05:09:39;101095.44;;;18.33;36.68
74834;BME280;63361;52.384;20.930;2023-04-21T05:12:05;101096.13;;;17.85;37.54
74834;BME280;63361;52.384;20.930;2023-04-21T05:14:30;101096.75;;;18.84;35.84
74834;BME280;63361;52.384;20.930;2023-04-21T05:16:55;101096.31;;;18.90;35.49
74834;BME280;63361;52.384;20.930;2023-04-21T05:19:21;101090.09;;;19.50;34.27
74834;BME280;63361;52.384;20.930;2023-04-21T05:21:46;101099.91;;;17.76;37.13
74834;BME280;63361;52.384;20.930;2023-04-21T05:24:11;101093.41;;;18.95;35.36
74834;BME280;63361;52.384;20.930;2023-04-21T05:26:36;101088.59;;;19.01;35.44
74834;BME280;63361;52.384;20.930;2023-04-21T05:29:02;101086.84;;;19.31;35.33
74834;BME280;63361;52.384;20.930;2023-04-21T05:31:27;101093.53;;;18.82;34.86
74834;BME280;63361;52.384;20.930;2023-04-21T05:33:52;101089.78;;;17.76;35.92
74834;BME280;63361;52.384;20.930;2023-04-21T05:36:18;101102.22;;;18.75;35.49
74834;BME280;63361;52.384;20.930;2023-04-21T05:38:46;101098.88;;;18.47;35.71
74834;BME280;63361;52.384;20.930;2023-04-21T05:41:11;101093.47;;;17.58;36.20
74834;BME280;63361;52.384;20.930;2023-04-21T05:43:37;101101.94;;;18.46;35.36
74834;BME280;63361;52.384;20.930;2023-04-21T05:46:06;101109.31;;;17.83;36.47
74834;BME280;63361;52.384;20.930;2023-04-21T05:48:32;101089.88;;;19.04;34.25
74834;BME280;63361;52.384;20.930;2023-04-21T05:51:10;101102.47;;;19.74;33.79
74834;BME280;63361;52.384;20.930;2023-04-21T05:53:38;101102.84;;;20.36;32.79
74834;BME280;63361;52.384;20.930;2023-04-21T05:56:04;101099.13;;;20.32;32.34
74834;BME280;63361;52.384;20.930;2023-04-21T05:58:30;101072.50;;;21.95;30.33
74834;BME280;63361;52.384;20.930;2023-04-21T06:00:55;101087.00;;;21.84;29.48
74834;BME280;63361;52.384;20.930;2023-04-21T06:03:21;101094.16;;;20.25;32.10
74834;BME280;63361;52.384;20.930;2023-04-21T06:05:46;101088.47;;;20.77;31.39
74834;BME280;63361;52.384;20.930;2023-04-21T06:08:12;101093.19;;;21.18;31.29
74834;BME280;63361;52.384;20.930;2023-04-21T06:10:37;101098.59;;;21.35;30.96
74834;BME280;63361;52.384;20.930;2023-04-21T06:13:02;101096.34;;;20.79;31.25
74834;BME280;63361;52.384;20.930;2023-04-21T06:15:28;101089.41;;;21.85;30.13
74834;BME280;63361;52.384;20.930;2023-04-21T06:17:53;101085.81;;;20.89;31.02
74834;BME280;63361;52.384;20.930;2023-04-21T06:20:21;101088.44;;;21.06;31.27
74834;BME280;63361;52.384;20.930;2023-04-21T06:22:47;101090.94;;;22.64;29.42
74834;BME280;63361;52.384;20.930;2023-04-21T06:25:12;101093.34;;;22.41;29.08
74834;BME280;63361;52.384;20.930;2023-04-21T06:27:37;101084.97;;;21.93;29.79
74834;BME280;63361;52.384;20.930;2023-04-21T06:30:03;101086.91;;;22.37;29.81
74834;BME280;63361;52.384;20.930;2023-04-21T06:32:28;101095.44;;;20.66;32.39
74834;BME280;63361;52.384;20.930;2023-04-21T06:34:54;101089.06;;;22.20;29.89
74834;BME280;63361;52.384;20.930;2023-04-21T06:37:19;101089.41;;;24.59;27.50
74834;BME280;63361;52.384;20.930;2023-04-21T06:39:44;101079.00;;;24.36;26.40
74834;BME280;63361;52.384;20.930;2023-04-21T06:42:10;101077.91;;;24.72;26.06
74834;BME280;63361;52.384;20.930;2023-04-21T06:44:35;101081.22;;;23.87;26.75
74834;BME280;63361;52.384;20.930;2023-04-21T06:47:02;101080.16;;;24.35;26.85
74834;BME280;63361;52.384;20.930;2023-04-21T06:49:27;101085.31;;;24.37;27.29
74834;BME280;63361;52.384;20.930;2023-04-21T06:51:52;101075.25;;;23.85;26.79
74834;BME280;63361;52.384;20.930;2023-04-21T06:54:18;101086.31;;;25.30;25.30
74834;BME280;63361;52.384;20.930;2023-04-21T06:56:43;101081.81;;;24.08;26.95
74834;BME280;63361;52.384;20.930;2023-04-21T06:59:08;101073.78;;;24.82;26.31
74834;BME280;63361;52.384;20.930;2023-04-21T07:01:34;101075.94;;;24.73;26.44
74834;BME280;63361;52.384;20.930;2023-04-21T07:04:00;101084.09;;;26.39;23.94
74834;BME280;63361;52.384;20.930;2023-04-21T07:06:25;101076.97;;;24.84;26.37
74834;BME280;63361;52.384;20.930;2023-04-21T07:08:51;101068.69;;;25.57;24.95
74834;BME280;63361;52.384;20.930;2023-04-21T07:11:16;101048.25;;;25.81;23.94
74834;BME280;63361;52.384;20.930;2023-04-21T07:13:41;101057.47;;;23.67;26.85
74834;BME280;63361;52.384;20.930;2023-04-21T07:16:07;101064.50;;;24.39;25.84
74834;BME280;63361;52.384;20.930;2023-04-21T07:18:32;101052.91;;;25.58;24.63
74834;BME280;63361;52.384;20.930;2023-04-21T07:20:59;101055.00;;;23.93;26.30
74834;BME280;63361;52.384;20.930;2023-04-21T07:23:24;101068.63;;;25.92;24.28
74834;BME280;63361;52.384;20.930;2023-04-21T07:25:50;101040.31;;;26.48;22.98
74834;BME280;63361;52.384;20.930;2023-04-21T07:28:15;101050.00;;;26.12;23.15
74834;BME280;63361;52.384;20.930;2023-04-21T07:30:41;101041.72;;;27.18;22.02
74834;BME280;63361;52.384;20.930;2023-04-21T07:33:07;101074.84;;;26.81;21.73
74834;BME280;63361;52.384;20.930;2023-04-21T07:35:33;101075.16;;;26.76;22.30
74834;BME280;63361;52.384;20.930;2023-04-21T07:37:58;101044.63;;;24.49;24.11
74834;BME280;63361;52.384;20.930;2023-04-21T07:40:24;101064.84;;;26.76;21.88
74834;BME280;63361;52.384;20.930;2023-04-21T07:42:49;101053.84;;;25.85;22.78
74834;BME280;63361;52.384;20.930;2023-04-21T07:45:14;101047.66;;;25.53;23.05
74834;BME280;63361;52.384;20.930;2023-04-21T07:47:40;101060.44;;;26.22;22.00
74834;BME280;63361;52.384;20.930;2023-04-21T07:50:06;101041.63;;;27.11;21.44
74834;BME280;63361;52.384;20.930;2023-04-21T07:52:31;101049.69;;;27.23;21.38
74834;BME280;63361;52.384;20.930;2023-04-21T07:54:56;101020.84;;;25.96;21.47
74834;BME280;63361;52.384;20.930;2023-04-21T07:57:22;101049.66;;;24.16;23.34
74834;BME280;63361;52.384;20.930;2023-04-21T07:59:47;101023.91;;;23.37;24.29
74834;BME280;63361;52.384;20.930;2023-04-21T08:02:13;101044.88;;;26.14;22.43
74834;BME280;63361;52.384;20.930;2023-04-21T08:04:38;101042.03;;;24.57;22.45
74834;BME280;63361;52.384;20.930;2023-04-21T08:07:03;101046.47;;;25.50;22.50
74834;BME280;63361;52.384;20.930;2023-04-21T08:09:29;101055.69;;;25.19;22.55
74834;BME280;63361;52.384;20.930;2023-04-21T08:11:54;101045.84;;;25.61;21.99
74834;BME280;63361;52.384;20.930;2023-04-21T08:14:21;101021.13;;;24.40;23.64
74834;BME280;63361;52.384;20.930;2023-04-21T08:16:46;101042.31;;;24.36;23.56
74834;BME280;63361;52.384;20.930;2023-04-21T08:19:11;101026.00;;;24.97;22.71
74834;BME280;63361;52.384;20.930;2023-04-21T08:21:38;101040.59;;;24.47;23.11
74834;BME280;63361;52.384;20.930;2023-04-21T08:24:03;101043.22;;;24.40;24.01
74834;BME280;63361;52.384;20.930;2023-04-21T08:26:29;101008.13;;;23.77;24.23
74834;BME280;63361;52.384;20.930;2023-04-21T08:28:55;101044.47;;;23.67;23.98
74834;BME280;63361;52.384;20.930;2023-04-21T08:31:21;101013.44;;;25.00;22.79
74834;BME280;63361;52.384;20.930;2023-04-21T08:33:47;101029.72;;;26.54;21.64
74834;BME280;63361;52.384;20.930;2023-04-21T08:36:12;101027.91;;;24.27;22.09
74834;BME280;63361;52.384;20.930;2023-04-21T08:38:38;101016.56;;;24.47;23.01
74834;BME280;63361;52.384;20.930;2023-04-21T08:41:04;101035.06;;;24.00;22.84
74834;BME280;63361;52.384;20.930;2023-04-21T08:43:29;101014.34;;;22.54;24.56
74834;BME280;63361;52.384;20.930;2023-04-21T08:45:55;101030.13;;;23.06;23.75
74834;BME280;63361;52.384;20.930;2023-04-21T08:48:21;101028.44;;;23.57;23.38
74834;BME280;63361;52.384;20.930;2023-04-21T08:50:49;101020.25;;;25.25;22.04
74834;BME280;63361;52.384;20.930;2023-04-21T08:53:16;101019.34;;;25.17;20.60
74834;BME280;63361;52.384;20.930;2023-04-21T08:55:41;101026.47;;;24.33;22.17
74834;BME280;63361;52.384;20.930;2023-04-21T08:58:07;101012.13;;;23.80;21.73
74834;BME280;63361;52.384;20.930;2023-04-21T09:00:36;100984.72;;;22.88;23.17
74834;BME280;63361;52.384;20.930;2023-04-21T09:03:02;101006.19;;;22.82;23.81
74834;BME280;63361;52.384;20.930;2023-04-21T09:05:30;101024.91;;;22.40;23.48
74834;BME280;63361;52.384;20.930;2023-04-21T09:08:14;101024.16;;;24.35;22.50
74834;BME280;63361;52.384;20.930;2023-04-21T09:10:49;101023.63;;;25.96;21.39
74834;BME280;63361;52.384;20.930;2023-04-21T09:13:17;101011.25;;;26.35;19.38
74834;BME280;63361;52.384;20.930;2023-04-21T09:15:48;100979.78;;;24.59;21.43
74834;BME280;63361;52.384;20.930;2023-04-21T09:18:19;101012.06;;;24.24;21.07
74834;BME280;63361;52.384;20.930;2023-04-21T09:20:47;100995.63;;;22.72;22.15
74834;BME280;63361;52.384;20.930;2023-04-21T09:23:13;100984.41;;;24.55;21.75
74834;BME280;63361;52.384;20.930;2023-04-21T09:25:40;101002.19;;;25.70;20.57
74834;BME280;63361;52.384;20.930;2023-04-21T09:28:10;100992.97;;;24.50;20.92
74834;BME280;63361;52.384;20.930;2023-04-21T09:30:36;101009.38;;;25.32;20.91
74834;BME280;63361;52.384;20.930;2023-04-21T09:33:02;100988.50;;;25.35;21.78
74834;BME280;63361;52.384;20.930;2023-04-21T09:35:32;100970.75;;;24.62;20.69
74834;BME280;63361;52.384;20.930;2023-04-21T09:37:59;100989.13;;;24.89;19.36
74834;BME280;63361;52.384;20.930;2023-04-21T09:40:25;100976.00;;;24.67;20.80
74834;BME280;63361;52.384;20.930;2023-04-21T09:42:50;100986.09;;;24.95;20.21
74834;BME280;63361;52.384;20.930;2023-04-21T09:45:16;100969.47;;;24.75;20.81
74834;BME280;63361;52.384;20.930;2023-04-21T09:47:43;100980.50;;;25.52;20.43
74834;BME280;63361;52.384;20.930;2023-04-21T09:50:13;100991.94;;;24.07;20.89
74834;BME280;63361;52.384;20.930;2023-04-21T09:52:41;100990.22;;;24.50;21.05
74834;BME280;63361;52.384;20.930;2023-04-21T09:55:11;100965.47;;;24.22;20.91
74834;BME280;63361;52.384;20.930;2023-04-21T09:57:40;100986.88;;;23.94;21.06
74834;BME280;63361;52.384;20.930;2023-04-21T10:00:08;100960.69;;;23.88;22.37
74834;BME280;63361;52.384;20.930;2023-04-21T10:02:42;100968.91;;;23.12;23.73
74834;BME280;63361;52.384;20.930;2023-04-21T10:05:08;100966.47;;;23.39;23.71
74834;BME280;63361;52.384;20.930;2023-04-21T10:07:34;100965.88;;;22.37;24.84
74834;BME280;63361;52.384;20.930;2023-04-21T10:10:00;100970.28;;;22.66;24.40
74834;BME280;63361;52.384;20.930;2023-04-21T10:12:26;100964.50;;;23.24;23.62
74834;BME280;63361;52.384;20.930;2023-04-21T10:14:53;100966.38;;;22.67;23.45
74834;BME280;63361;52.384;20.930;2023-04-21T10:17:22;100941.50;;;22.76;25.03
74834;BME280;63361;52.384;20.930;2023-04-21T10:19:53;100959.38;;;22.70;24.21
74834;BME280;63361;52.384;20.930;2023-04-21T10:22:33;100946.03;;;22.20;25.17
74834;BME280;63361;52.384;20.930;2023-04-21T10:25:00;100945.47;;;21.12;25.62
74834;BME280;63361;52.384;20.930;2023-04-21T10:27:38;100936.63;;;21.96;25.06
74834;BME280;63361;52.384;20.930;2023-04-21T10:30:20;100946.16;;;21.99;24.37
74834;BME280;63361;52.384;20.930;2023-04-21T10:32:47;100948.53;;;23.45;22.63
74834;BME280;63361;52.384;20.930;2023-04-21T10:35:15;100931.44;;;23.83;22.38
74834;BME280;63361;52.384;20.930;2023-04-21T10:37:42;100915.16;;;22.51;23.20
74834;BME280;63361;52.384;20.930;2023-04-21T10:40:33;100921.72;;;21.85;23.41
74834;BME280;63361;52.384;20.930;2023-04-21T10:43:02;100931.25;;;22.36;23.03
74834;BME280;63361;52.384;20.930;2023-04-21T10:45:29;100927.25;;;22.86;22.55
74834;BME280;63361;52.384;20.930;2023-04-21T10:47:54;100891.78;;;22.57;22.36
74834;BME280;63361;52.384;20.930;2023-04-21T10:50:24;100924.78;;;23.53;20.75
74834;BME280;63361;52.384;20.930;2023-04-21T10:53:09;100897.69;;;23.42;21.27
74834;BME280;63361;52.384;20.930;2023-04-21T10:55:36;100923.16;;;23.52;21.21
74834;BME280;63361;52.384;20.930;2023-04-21T10:58:04;100924.03;;;23.87;21.17
74834;BME280;63361;52.384;20.930;2023-04-21T11:00:30;100918.91;;;22.70;20.91
74834;BME280;63361;52.384;20.930;2023-04-21T11:03:06;100913.03;;;21.83;22.46
74834;BME280;63361;52.384;20.930;2023-04-21T11:05:39;100916.25;;;22.86;21.88
74834;BME280;63361;52.384;20.930;2023-04-21T11:08:07;100910.25;;;24.03;21.36
74834;BME280;63361;52.384;20.930;2023-04-21T11:10:53;100899.28;;;22.72;23.41
74834;BME280;63361;52.384;20.930;2023-04-21T11:13:20;100887.47;;;24.06;21.77
74834;BME280;63361;52.384;20.930;2023-04-21T11:16:00;100887.31;;;23.08;22.67
74834;BME280;63361;52.384;20.930;2023-04-21T11:18:37;100884.84;;;22.63;22.93
74834;BME280;63361;52.384;20.930;2023-04-21T11:21:11;100893.06;;;22.35;23.10
74834;BME280;63361;52.384;20.930;2023-04-21T11:23:47;100893.94;;;23.19;22.07
74834;BME280;63361;52.384;20.930;2023-04-21T11:26:13;100848.72;;;23.83;21.78
74834;BME280;63361;52.384;20.930;2023-04-21T11:28:39;100861.59;;;24.30;21.77
74834;BME280;63361;52.384;20.930;2023-04-21T11:31:05;100843.38;;;23.43;22.26
74834;BME280;63361;52.384;20.930;2023-04-21T11:33:35;100846.66;;;22.61;23.48
74834;BME280;63361;52.384;20.930;2023-04-21T11:36:05;100841.06;;;22.30;23.08
74834;BME280;63361;52.384;20.930;2023-04-21T11:38:40;100868.28;;;22.87;21.76
74834;BME280;63361;52.384;20.930;2023-04-21T11:41:07;100854.84;;;22.58;22.81
74834;BME280;63361;52.384;20.930;2023-04-21T11:43:34;100862.69;;;22.31;22.86
74834;BME280;63361;52.384;20.930;2023-04-21T11:46:24;100856.69;;;22.14;23.16
74834;BME280;63361;52.384;20.930;2023-04-21T11:51:25;100848.69;;;21.84;22.98
74834;BME280;63361;52.384;20.930;2023-04-21T11:53:51;100855.81;;;23.05;22.13
74834;BME280;63361;52.384;20.930;2023-04-21T11:56:19;100819.97;;;22.90;21.87
74834;BME280;63361;52.384;20.930;2023-04-21T11:58:49;100842.47;;;23.23;22.46
74834;BME280;63361;52.384;20.930;2023-04-21T12:01:15;100830.72;;;22.67;23.44
74834;BME280;63361;52.384;20.930;2023-04-21T12:03:41;100842.16;;;21.52;22.82
74834;BME280;63361;52.384;20.930;2023-04-21T12:06:06;100837.56;;;21.56;23.20
74834;BME280;63361;52.384;20.930;2023-04-21T12:08:32;100851.78;;;21.13;23.08
74834;BME280;63361;52.384;20.930;2023-04-21T12:10:58;100849.31;;;21.20;24.49
74834;BME280;63361;52.384;20.930;2023-04-21T12:13:26;100846.06;;;21.06;24.53
74834;BME280;63361;52.384;20.930;2023-04-21T12:15:51;100832.34;;;21.06;23.78
74834;BME280;63361;52.384;20.930;2023-04-21T12:18:17;100840.53;;;21.75;22.95
74834;BME280;63361;52.384;20.930;2023-04-21T12:20:50;100833.16;;;22.28;22.03
74834;BME280;63361;52.384;20.930;2023-04-21T12:23:17;100816.38;;;23.48;20.88
74834;BME280;63361;52.384;20.930;2023-04-21T12:25:42;100819.75;;;25.05;19.27
74834;BME280;63361;52.384;20.930;2023-04-21T12:28:08;100803.91;;;25.24;19.87
74834;BME280;63361;52.384;20.930;2023-04-21T12:30:34;100801.69;;;24.11;20.22
74834;BME280;63361;52.384;20.930;2023-04-21T12:32:59;100817.78;;;23.27;21.08
74834;BME280;63361;52.384;20.930;2023-04-21T12:35:25;100821.72;;;22.82;21.04
74834;BME280;63361;52.384;20.930;2023-04-21T12:37:50;100809.97;;;23.13;21.37
74834;BME280;63361;52.384;20.930;2023-04-21T12:40:16;100802.53;;;24.15;21.26
74834;BME280;63361;52.384;20.930;2023-04-21T12:42:41;100805.22;;;22.54;21.85